ACA1508 CYYZ-KEWR
Flight info
| Callsign | ACA1508 |
|---|---|
| Flight time | 0h 50m |
| Altitude | 35000 |
| Route | KEPTA3 BMPAH DCT AEVON DCT GEE FLOSI4 |
| Aircraft | B77W/H-SDE1E2E3FGHIJ2J3J4J5M1RWXY/LB1D1 |
Departure
| Time | 2026-05-05 18:08 |
|---|---|
| Airport | Toronto Pearson International Airport (CYYZ) |
Arrival
| Time | 2026-05-05 18:58 |
|---|---|
| Airport | Newark Liberty International Airport (KEWR) |
| Time | Latitude | Longitude | Altitude | Speed | Heading |
|---|---|---|---|---|---|
| 2026-05-05 17:38 | 43.68109 | -79.61564 | 566 ft | 0 kts | 98° |
| 2026-05-05 17:54 | 43.68113 | -79.61597 | 570 ft | 4 kts | 98° |
| 2026-05-05 17:54 | 43.68117 | -79.61634 | 575 ft | 4 kts | 98° |
| 2026-05-05 17:54 | 43.68121 | -79.61670 | 574 ft | 4 kts | 99° |
| 2026-05-05 17:55 | 43.68123 | -79.61706 | 571 ft | 4 kts | 81° |
| 2026-05-05 17:55 | 43.68115 | -79.61741 | 575 ft | 4 kts | 58° |
| 2026-05-05 17:55 | 43.68099 | -79.61770 | 575 ft | 4 kts | 46° |
| 2026-05-05 17:55 | 43.68089 | -79.61784 | 575 ft | 0 kts | 46° |
| 2026-05-05 17:58 | 43.68109 | -79.61757 | 575 ft | 9 kts | 39° |
| 2026-05-05 17:58 | 43.68160 | -79.61766 | 575 ft | 8 kts | 303° |
| 2026-05-05 17:59 | 43.68149 | -79.61839 | 574 ft | 8 kts | 240° |
| 2026-05-05 17:59 | 43.68109 | -79.61897 | 575 ft | 8 kts | 224° |
| 2026-05-05 17:59 | 43.68067 | -79.61952 | 573 ft | 8 kts | 224° |
| 2026-05-05 17:59 | 43.68016 | -79.61988 | 572 ft | 8 kts | 199° |
| 2026-05-05 18:00 | 43.67966 | -79.62029 | 566 ft | 8 kts | 216° |
| 2026-05-05 18:00 | 43.67926 | -79.62087 | 576 ft | 8 kts | 238° |
| 2026-05-05 18:00 | 43.67915 | -79.62162 | 574 ft | 8 kts | 293° |
| 2026-05-05 18:00 | 43.67957 | -79.62217 | 574 ft | 9 kts | 317° |
| 2026-05-05 18:01 | 43.68014 | -79.62292 | 572 ft | 13 kts | 316° |
| 2026-05-05 18:01 | 43.68079 | -79.62377 | 574 ft | 13 kts | 316° |
| 2026-05-05 18:01 | 43.68145 | -79.62461 | 576 ft | 13 kts | 318° |
| 2026-05-05 18:01 | 43.68211 | -79.62544 | 573 ft | 13 kts | 316° |
| 2026-05-05 18:02 | 43.68276 | -79.62628 | 573 ft | 13 kts | 316° |
| 2026-05-05 18:02 | 43.68344 | -79.62717 | 573 ft | 15 kts | 316° |
| 2026-05-05 18:02 | 43.68419 | -79.62817 | 572 ft | 15 kts | 317° |
| 2026-05-05 18:02 | 43.68496 | -79.62916 | 570 ft | 15 kts | 316° |
| 2026-05-05 18:03 | 43.68571 | -79.63013 | 569 ft | 15 kts | 316° |
| 2026-05-05 18:03 | 43.68647 | -79.63113 | 575 ft | 15 kts | 316° |
| 2026-05-05 18:03 | 43.68724 | -79.63213 | 574 ft | 15 kts | 317° |
| 2026-05-05 18:03 | 43.68801 | -79.63311 | 573 ft | 15 kts | 316° |
| 2026-05-05 18:04 | 43.68877 | -79.63411 | 575 ft | 15 kts | 316° |
| 2026-05-05 18:04 | 43.68953 | -79.63510 | 578 ft | 15 kts | 316° |
| 2026-05-05 18:04 | 43.69030 | -79.63604 | 576 ft | 13 kts | 332° |
| 2026-05-05 18:04 | 43.69089 | -79.63580 | 577 ft | 8 kts | 52° |
| 2026-05-05 18:05 | 43.69128 | -79.63520 | 574 ft | 8 kts | 45° |
| 2026-05-05 18:05 | 43.69169 | -79.63463 | 575 ft | 8 kts | 45° |
| 2026-05-05 18:05 | 43.69226 | -79.63428 | 577 ft | 10 kts | 7° |
| 2026-05-05 18:05 | 43.69298 | -79.63422 | 571 ft | 11 kts | 2° |
| 2026-05-05 18:06 | 43.69372 | -79.63449 | 571 ft | 12 kts | 324° |
| 2026-05-05 18:06 | 43.69399 | -79.63508 | 574 ft | 11 kts | 271° |
| 2026-05-05 18:06 | 43.69369 | -79.63574 | 572 ft | 0 kts | 226° |
| 2026-05-05 18:07 | 43.69368 | -79.63576 | 572 ft | 3 kts | 226° |
| 2026-05-05 18:07 | 43.69218 | -79.63793 | 571 ft | 79 kts | 226° |
| 2026-05-05 18:07 | 43.68579 | -79.64719 | 578 ft | 184 kts | 226° |
| 2026-05-05 18:08 | 43.67567 | -79.66169 | 1323 ft | 223 kts | 230° |
| 2026-05-05 18:08 | 43.66511 | -79.67782 | 2629 ft | 230 kts | 234° |
| 2026-05-05 18:08 | 43.65601 | -79.69698 | 3313 ft | 245 kts | 244° |
| 2026-05-05 18:08 | 43.64766 | -79.71744 | 4196 ft | 238 kts | 239° |
| 2026-05-05 18:09 | 43.63542 | -79.73277 | 4554 ft | 248 kts | 209° |
| 2026-05-05 18:09 | 43.61818 | -79.73756 | 4868 ft | 261 kts | 185° |
| 2026-05-05 18:09 | 43.60011 | -79.73245 | 5717 ft | 270 kts | 168° |
| 2026-05-05 18:09 | 43.58365 | -79.71892 | 6843 ft | 286 kts | 145° |
| 2026-05-05 18:10 | 43.57130 | -79.69656 | 7858 ft | 302 kts | 124° |
| 2026-05-05 18:10 | 43.56293 | -79.66940 | 8714 ft | 313 kts | 119° |
| 2026-05-05 18:10 | 43.55534 | -79.64149 | 9654 ft | 316 kts | 118° |
| 2026-05-05 18:10 | 43.54780 | -79.61285 | 10530 ft | 321 kts | 118° |
| 2026-05-05 18:11 | 43.54014 | -79.58373 | 11335 ft | 327 kts | 118° |
| 2026-05-05 18:11 | 43.53227 | -79.55400 | 12145 ft | 333 kts | 118° |
| 2026-05-05 18:11 | 43.52400 | -79.52325 | 12609 ft | 355 kts | 118° |
| 2026-05-05 18:11 | 43.51493 | -79.49009 | 12813 ft | 383 kts | 118° |
| 2026-05-05 18:12 | 43.50517 | -79.45451 | 13053 ft | 410 kts | 117° |
| 2026-05-05 18:12 | 43.49492 | -79.41696 | 13663 ft | 424 kts | 117° |
| 2026-05-05 18:12 | 43.48444 | -79.37840 | 14415 ft | 432 kts | 117° |
| 2026-05-05 18:12 | 43.47382 | -79.33936 | 15254 ft | 438 kts | 117° |
| 2026-05-05 18:13 | 43.46306 | -79.29991 | 16114 ft | 443 kts | 117° |
| 2026-05-05 18:13 | 43.45209 | -79.25995 | 16960 ft | 449 kts | 117° |
| 2026-05-05 18:13 | 43.44095 | -79.21951 | 17752 ft | 455 kts | 117° |
| 2026-05-05 18:13 | 43.42958 | -79.17841 | 18490 ft | 462 kts | 117° |
| 2026-05-05 18:14 | 43.41810 | -79.13697 | 19232 ft | 466 kts | 117° |
| 2026-05-05 18:14 | 43.40651 | -79.09516 | 20000 ft | 469 kts | 117° |
| 2026-05-05 18:14 | 43.39481 | -79.05307 | 20718 ft | 473 kts | 116° |
| 2026-05-05 18:14 | 43.38302 | -79.01069 | 21566 ft | 474 kts | 116° |
| 2026-05-05 18:15 | 43.37119 | -78.96824 | 22305 ft | 478 kts | 116° |
| 2026-05-05 18:15 | 43.35936 | -78.92592 | 22948 ft | 484 kts | 116° |
| 2026-05-05 18:15 | 43.34720 | -78.88253 | 23539 ft | 489 kts | 116° |
| 2026-05-05 18:15 | 43.33487 | -78.83861 | 24026 ft | 495 kts | 116° |
| 2026-05-05 18:16 | 43.32240 | -78.79424 | 24509 ft | 501 kts | 116° |
| 2026-05-05 18:16 | 43.30972 | -78.74921 | 24955 ft | 508 kts | 116° |
| 2026-05-05 18:16 | 43.29692 | -78.70382 | 25419 ft | 513 kts | 116° |
| 2026-05-05 18:16 | 43.28397 | -78.65794 | 25918 ft | 517 kts | 115° |
| 2026-05-05 18:17 | 43.27092 | -78.61176 | 26461 ft | 521 kts | 115° |
| 2026-05-05 18:17 | 43.25774 | -78.56523 | 26897 ft | 526 kts | 115° |
| 2026-05-05 18:17 | 43.24440 | -78.51823 | 27297 ft | 531 kts | 115° |
| 2026-05-05 18:17 | 43.23091 | -78.47076 | 27734 ft | 535 kts | 115° |
| 2026-05-05 18:18 | 43.21730 | -78.42301 | 28170 ft | 540 kts | 115° |
| 2026-05-05 18:18 | 43.20307 | -78.37507 | 28561 ft | 543 kts | 118° |
| 2026-05-05 18:18 | 43.18575 | -78.32893 | 28933 ft | 543 kts | 125° |
| 2026-05-05 18:18 | 43.16598 | -78.28562 | 29292 ft | 543 kts | 130° |
| 2026-05-05 18:19 | 43.14314 | -78.24454 | 29657 ft | 542 kts | 135° |
| 2026-05-05 18:19 | 43.11894 | -78.20503 | 30050 ft | 543 kts | 136° |
| 2026-05-05 18:19 | 43.09467 | -78.16546 | 30482 ft | 542 kts | 136° |
| 2026-05-05 18:19 | 43.07050 | -78.12577 | 30962 ft | 542 kts | 136° |
| 2026-05-05 18:20 | 43.04654 | -78.08607 | 31414 ft | 541 kts | 136° |
| 2026-05-05 18:20 | 43.02267 | -78.04634 | 31840 ft | 542 kts | 136° |
| 2026-05-05 18:20 | 42.99878 | -78.00650 | 32224 ft | 541 kts | 136° |
| 2026-05-05 18:20 | 42.97496 | -77.96680 | 32741 ft | 539 kts | 137° |
| 2026-05-05 18:21 | 42.95123 | -77.92733 | 33222 ft | 537 kts | 136° |
| 2026-05-05 18:21 | 42.92753 | -77.88805 | 33637 ft | 536 kts | 137° |
| 2026-05-05 18:21 | 42.90376 | -77.84870 | 34004 ft | 536 kts | 137° |
| 2026-05-05 18:21 | 42.88009 | -77.80945 | 34368 ft | 535 kts | 136° |
| 2026-05-05 18:22 | 42.85650 | -77.77027 | 34735 ft | 533 kts | 136° |
| 2026-05-05 18:22 | 42.83518 | -77.72834 | 34733 ft | 549 kts | 122° |
| 2026-05-05 18:22 | 42.82243 | -77.67904 | 34803 ft | 555 kts | 104° |
| 2026-05-05 18:23 | 42.80849 | -77.57549 | 34751 ft | 554 kts | 102° |
| 2026-05-05 18:23 | 42.79396 | -77.47303 | 34773 ft | 549 kts | 104° |
| 2026-05-05 18:24 | 42.77841 | -77.37214 | 34777 ft | 547 kts | 104° |
| 2026-05-05 18:24 | 42.76237 | -77.27089 | 34774 ft | 547 kts | 105° |
| 2026-05-05 18:25 | 42.74631 | -77.16967 | 34777 ft | 548 kts | 104° |
| 2026-05-05 18:25 | 42.73021 | -77.06822 | 34803 ft | 548 kts | 104° |
| 2026-05-05 18:26 | 42.71400 | -76.96658 | 34791 ft | 550 kts | 104° |
| 2026-05-05 18:26 | 42.69769 | -76.86498 | 34722 ft | 550 kts | 104° |
| 2026-05-05 18:27 | 42.68131 | -76.76358 | 34744 ft | 549 kts | 104° |
| 2026-05-05 18:27 | 42.66489 | -76.66239 | 34756 ft | 547 kts | 104° |
| 2026-05-05 18:28 | 42.61892 | -76.52552 | 34777 ft | 531 kts | 127° |
| 2026-05-05 18:28 | 42.57873 | -76.44105 | 34787 ft | 533 kts | 126° |
| 2026-05-05 18:29 | 42.53944 | -76.35559 | 34768 ft | 535 kts | 125° |
| 2026-05-05 18:29 | 42.50057 | -76.26930 | 34769 ft | 536 kts | 125° |
| 2026-05-05 18:30 | 42.46826 | -76.19758 | 34783 ft | 537 kts | 125° |
| 2026-05-05 18:30 | 42.42909 | -76.11113 | 34790 ft | 537 kts | 124° |
| 2026-05-05 18:31 | 42.39003 | -76.02527 | 34793 ft | 534 kts | 124° |
| 2026-05-05 18:31 | 42.35109 | -75.93996 | 34789 ft | 531 kts | 124° |
| 2026-05-05 18:32 | 42.31255 | -75.85571 | 34772 ft | 529 kts | 124° |
| 2026-05-05 18:32 | 42.27375 | -75.77116 | 34767 ft | 528 kts | 124° |
| 2026-05-05 18:33 | 42.23503 | -75.68714 | 34786 ft | 526 kts | 124° |
| 2026-05-05 18:33 | 42.19634 | -75.60335 | 34791 ft | 525 kts | 124° |
| 2026-05-05 18:34 | 42.15760 | -75.51964 | 34795 ft | 525 kts | 124° |
| 2026-05-05 18:34 | 42.11885 | -75.43615 | 34802 ft | 526 kts | 124° |
| 2026-05-05 18:35 | 42.08027 | -75.35326 | 34791 ft | 525 kts | 124° |
| 2026-05-05 18:35 | 42.04293 | -75.26893 | 34800 ft | 525 kts | 120° |
| 2026-05-05 18:36 | 42.01035 | -75.18079 | 34806 ft | 526 kts | 117° |
| 2026-05-05 18:36 | 41.97840 | -75.09240 | 34823 ft | 526 kts | 118° |
| 2026-05-05 18:37 | 41.94562 | -75.00460 | 34809 ft | 524 kts | 118° |
| 2026-05-05 18:37 | 41.91251 | -74.91761 | 34838 ft | 522 kts | 118° |
| 2026-05-05 18:38 | 41.87945 | -74.83109 | 33836 ft | 534 kts | 118° |
| 2026-05-05 18:38 | 41.86235 | -74.78636 | 32907 ft | 537 kts | 118° |
| 2026-05-05 18:38 | 41.84566 | -74.74265 | 33005 ft | 517 kts | 118° |
| 2026-05-05 18:39 | 41.82933 | -74.69992 | 32515 ft | 512 kts | 118° |
| 2026-05-05 18:39 | 41.81307 | -74.65748 | 31929 ft | 509 kts | 119° |
| 2026-05-05 18:39 | 41.79694 | -74.61550 | 31334 ft | 502 kts | 119° |
| 2026-05-05 18:39 | 41.78112 | -74.57433 | 30625 ft | 490 kts | 120° |
| 2026-05-05 18:40 | 41.76564 | -74.53411 | 29767 ft | 483 kts | 120° |
| 2026-05-05 18:40 | 41.75035 | -74.49447 | 28756 ft | 476 kts | 120° |
| 2026-05-05 18:40 | 41.73523 | -74.45532 | 27742 ft | 470 kts | 120° |
| 2026-05-05 18:40 | 41.72048 | -74.41720 | 26757 ft | 465 kts | 121° |
| 2026-05-05 18:41 | 41.70541 | -74.37923 | 25815 ft | 458 kts | 126° |
| 2026-05-05 18:41 | 41.68526 | -74.34739 | 24867 ft | 442 kts | 146° |
| 2026-05-05 18:41 | 41.65955 | -74.32671 | 23991 ft | 425 kts | 163° |
| 2026-05-05 18:41 | 41.63164 | -74.31642 | 23124 ft | 410 kts | 177° |
| 2026-05-05 18:42 | 41.60360 | -74.31349 | 22193 ft | 398 kts | 186° |
| 2026-05-05 18:42 | 41.57676 | -74.31812 | 21271 ft | 382 kts | 202° |
| 2026-05-05 18:42 | 41.55194 | -74.32954 | 20422 ft | 374 kts | 204° |
| 2026-05-05 18:42 | 41.52745 | -74.34077 | 19554 ft | 370 kts | 203° |
| 2026-05-05 18:43 | 41.50315 | -74.35149 | 18694 ft | 367 kts | 202° |
| 2026-05-05 18:43 | 41.47895 | -74.36198 | 17856 ft | 363 kts | 203° |
| 2026-05-05 18:43 | 41.45512 | -74.37225 | 17082 ft | 355 kts | 203° |
| 2026-05-05 18:43 | 41.43180 | -74.38226 | 16299 ft | 348 kts | 203° |
| 2026-05-05 18:44 | 41.40868 | -74.39222 | 15673 ft | 351 kts | 204° |
| 2026-05-05 18:44 | 41.38564 | -74.40215 | 15360 ft | 344 kts | 204° |
| 2026-05-05 18:44 | 41.36334 | -74.41169 | 14816 ft | 328 kts | 204° |
| 2026-05-05 18:44 | 41.34184 | -74.42092 | 13813 ft | 322 kts | 205° |
| 2026-05-05 18:45 | 41.32061 | -74.43007 | 12627 ft | 320 kts | 204° |
| 2026-05-05 18:45 | 41.29980 | -74.43902 | 11550 ft | 315 kts | 204° |
| 2026-05-05 18:45 | 41.27912 | -74.44788 | 10567 ft | 308 kts | 204° |
| 2026-05-05 18:45 | 41.25890 | -74.45652 | 9591 ft | 301 kts | 204° |
| 2026-05-05 18:46 | 41.23916 | -74.46496 | 8810 ft | 289 kts | 203° |
| 2026-05-05 18:46 | 41.22039 | -74.47121 | 8442 ft | 273 kts | 188° |
| 2026-05-05 18:46 | 41.20196 | -74.46653 | 8021 ft | 270 kts | 167° |
| 2026-05-05 18:46 | 41.18520 | -74.45549 | 7474 ft | 269 kts | 157° |
| 2026-05-05 18:47 | 41.16939 | -74.44196 | 7161 ft | 270 kts | 154° |
| 2026-05-05 18:47 | 41.15430 | -74.42818 | 6989 ft | 262 kts | 153° |
| 2026-05-05 18:47 | 41.13959 | -74.41470 | 6860 ft | 252 kts | 154° |
| 2026-05-05 18:47 | 41.12525 | -74.40164 | 6584 ft | 246 kts | 153° |
| 2026-05-05 18:48 | 41.11124 | -74.38895 | 6126 ft | 243 kts | 153° |
| 2026-05-05 18:48 | 41.09729 | -74.37636 | 5583 ft | 242 kts | 153° |
| 2026-05-05 18:48 | 41.08338 | -74.36389 | 5071 ft | 241 kts | 153° |
| 2026-05-05 18:48 | 41.06953 | -74.35095 | 4511 ft | 244 kts | 152° |
| 2026-05-05 18:49 | 41.05567 | -74.33855 | 4157 ft | 237 kts | 153° |
| 2026-05-05 18:49 | 41.04239 | -74.32680 | 3974 ft | 221 kts | 153° |
| 2026-05-05 18:49 | 41.03021 | -74.31596 | 3770 ft | 202 kts | 153° |
| 2026-05-05 18:49 | 41.01882 | -74.30585 | 3378 ft | 194 kts | 154° |
| 2026-05-05 18:50 | 41.00771 | -74.29599 | 2937 ft | 192 kts | 154° |
| 2026-05-05 18:50 | 40.99672 | -74.28630 | 2641 ft | 192 kts | 154° |
| 2026-05-05 18:50 | 40.98570 | -74.27663 | 2369 ft | 189 kts | 153° |
| 2026-05-05 18:50 | 40.97487 | -74.26705 | 2053 ft | 184 kts | 155° |
| 2026-05-05 18:51 | 40.96380 | -74.25728 | 2016 ft | 197 kts | 153° |
| 2026-05-05 18:51 | 40.95257 | -74.24725 | 1987 ft | 192 kts | 154° |
| 2026-05-05 18:51 | 40.94160 | -74.23752 | 1959 ft | 188 kts | 153° |
| 2026-05-05 18:51 | 40.93087 | -74.22794 | 2014 ft | 186 kts | 155° |
| 2026-05-05 18:52 | 40.92002 | -74.21834 | 1983 ft | 188 kts | 154° |
| 2026-05-05 18:52 | 40.90919 | -74.20872 | 1984 ft | 187 kts | 154° |
| 2026-05-05 18:52 | 40.89836 | -74.19916 | 1986 ft | 187 kts | 154° |
| 2026-05-05 18:52 | 40.88753 | -74.18957 | 1926 ft | 193 kts | 153° |
| 2026-05-05 18:53 | 40.87730 | -74.17808 | 2062 ft | 192 kts | 143° |
| 2026-05-05 18:53 | 40.86610 | -74.16843 | 2006 ft | 190 kts | 160° |
| 2026-05-05 18:53 | 40.85451 | -74.16020 | 1978 ft | 192 kts | 156° |
| 2026-05-05 18:53 | 40.84322 | -74.15052 | 1980 ft | 191 kts | 154° |
| 2026-05-05 18:54 | 40.83240 | -74.14100 | 1976 ft | 187 kts | 153° |
| 2026-05-05 18:54 | 40.82169 | -74.13144 | 1979 ft | 186 kts | 152° |
| 2026-05-05 18:54 | 40.81119 | -74.12212 | 1977 ft | 176 kts | 153° |
| 2026-05-05 18:54 | 40.80140 | -74.11338 | 1967 ft | 163 kts | 155° |
| 2026-05-05 18:55 | 40.79153 | -74.10927 | 1956 ft | 138 kts | 192° |
| 2026-05-05 18:55 | 40.78232 | -74.11175 | 1767 ft | 133 kts | 196° |
| 2026-05-05 18:55 | 40.77383 | -74.11520 | 1678 ft | 126 kts | 202° |
| 2026-05-05 18:55 | 40.76542 | -74.11897 | 1450 ft | 127 kts | 201° |
| 2026-05-05 18:56 | 40.75724 | -74.12321 | 1281 ft | 127 kts | 205° |
| 2026-05-05 18:56 | 40.74863 | -74.12896 | 1158 ft | 147 kts | 206° |
| 2026-05-05 18:56 | 40.73980 | -74.13498 | 924 ft | 138 kts | 205° |
| 2026-05-05 18:56 | 40.73151 | -74.14010 | 780 ft | 132 kts | 207° |
| 2026-05-05 18:57 | 40.72265 | -74.14556 | 629 ft | 150 kts | 207° |
| 2026-05-05 18:57 | 40.71370 | -74.15141 | 387 ft | 133 kts | 204° |
| 2026-05-05 18:57 | 40.70605 | -74.15621 | 178 ft | 115 kts | 204° |
| 2026-05-05 18:57 | 40.69877 | -74.16081 | 51 ft | 121 kts | 206° |
| 2026-05-05 18:58 | 40.69123 | -74.16561 | 31 ft | 111 kts | 202° |
| 2026-05-05 18:58 | 40.68593 | -74.16893 | 27 ft | 59 kts | 206° |
| 2026-05-05 18:58 | 40.68386 | -74.17034 | 27 ft | 17 kts | 214° |
| 2026-05-05 18:58 | 40.68290 | -74.17139 | 26 ft | 18 kts | 226° |
| 2026-05-05 18:59 | 40.68224 | -74.17254 | 27 ft | 13 kts | 236° |
| 2026-05-05 18:59 | 40.68179 | -74.17341 | 26 ft | 10 kts | 235° |
| 2026-05-05 18:59 | 40.68146 | -74.17416 | 30 ft | 10 kts | 257° |
| 2026-05-05 18:59 | 40.68164 | -74.17493 | 31 ft | 10 kts | 295° |
| 2026-05-05 19:00 | 40.68191 | -74.17576 | 29 ft | 10 kts | 293° |
| 2026-05-05 19:00 | 40.68228 | -74.17649 | 27 ft | 10 kts | 332° |
| 2026-05-05 19:00 | 40.68294 | -74.17631 | 27 ft | 10 kts | 30° |
| 2026-05-05 19:00 | 40.68356 | -74.17585 | 27 ft | 10 kts | 28° |
| 2026-05-05 19:01 | 40.68421 | -74.17545 | 28 ft | 10 kts | 25° |
| 2026-05-05 19:01 | 40.68485 | -74.17505 | 28 ft | 10 kts | 25° |
| 2026-05-05 19:01 | 40.68550 | -74.17464 | 28 ft | 10 kts | 26° |
| 2026-05-05 19:01 | 40.68613 | -74.17423 | 28 ft | 10 kts | 26° |
| 2026-05-05 19:02 | 40.68683 | -74.17377 | 28 ft | 16 kts | 25° |
| 2026-05-05 19:02 | 40.68790 | -74.17310 | 27 ft | 17 kts | 25° |
| 2026-05-05 19:02 | 40.68898 | -74.17241 | 27 ft | 17 kts | 26° |
| 2026-05-05 19:02 | 40.68966 | -74.17207 | 27 ft | 8 kts | 0° |
| 2026-05-05 19:03 | 40.69013 | -74.17244 | 27 ft | 8 kts | 332° |
| 2026-05-05 19:03 | 40.69069 | -74.17256 | 27 ft | 8 kts | 353° |
| 2026-05-05 19:03 | 40.69103 | -74.17295 | 27 ft | 6 kts | 276° |
| 2026-05-05 19:03 | 40.69117 | -74.17337 | 27 ft | 3 kts | 308° |
| 2026-05-05 19:04 | 40.69123 | -74.17346 | 27 ft | 1 kts | 314° |
| 2026-05-05 19:04 | 40.69127 | -74.17352 | 27 ft | 1 kts | 315° |
| 2026-05-05 19:04 | 40.69130 | -74.17355 | 27 ft | 1 kts | 316° |
| 2026-05-05 19:04 | 40.69133 | -74.17358 | 27 ft | 1 kts | 320° |
| 2026-05-05 19:05 | 40.69137 | -74.17362 | 27 ft | 1 kts | 321° |
| 2026-05-05 19:05 | 40.69140 | -74.17365 | 27 ft | 0 kts | 321° |
| 2026-05-05 19:05 | 40.69140 | -74.17366 | 27 ft | 0 kts | 321° |